Lincolnshire, South Carolina
Current Conditions -  °F | °C
As of 10:21 AM on Monday 24 Nov 2014 (Local Time) from KCUB Reporting Station
Overcast Overcast  
Wind Chill: 70°   Ceiling: 1500
Heat Index: 70°   Visibility: 10mi
Dew Point: 65°   Wind: 8mph
Humidity: 84%   Direction: 200°SSW
Pressure: 29.87"   Gusts: NA
Location:  34.1179°N, 81.0612°W
Report Text: KCUB 241521Z AUTO 20007KT 10SM BKN015 OVC022 21/18 A2987 RMK AO2 T02110183
Loading
Personal Weather Stations






























Interactive Weather Map New forecast layout! Learn more

10-Day Weather Forecast

Advertisements
Track Severe Weather on mobile